Terminal Aerodrome Forecast
Issued by NWS

Home | Current Version | Previous Version | Graphics & Text | Print | Product List | Glossary On
Versions: 1 2 3 4 5 6 7 8 9 10 11 12 13 14 15 16
994
FTUS43 KICT 161724
TAFHUT
TAF
KHUT 161724Z 1618/1718 19016G24KT P6SM SKC
     FM170300 16011KT P6SM SCT200
     FM170700 16008KT P6SM BKN090
     FM170900 17007KT P6SM OVC025
     FM171400 23005KT P6SM BKN010=

USA.gov is the U.S. government's official web portal to all federal, state and local government web resources and services.